Time;durP1;ratioP1;P1;durP2;ratioP2;P2;SDS_P1;SDS_P2;PMS_P1;PMS_P2;Temp;Humidity;BMP_temperature;BMP_pressure;BME280_temperature;BME280_humidity;BME280_pressure;Samples;Min_cycle;Max_cycle;Signal;HPM_P1;HPM_P2
2021/03/16 00:01:01;;;;;;;3.92;2.17;;;;;;;8.16;48.12;97571.78;5017977;28;20040;-81
2021/03/16 00:03:26;;;;;;;1.40;1.30;;;;;;;8.43;48.55;97608.50;5018071;28;20029;-80
2021/03/16 00:05:52;;;;;;;1.60;1.30;;;;;;;8.09;48.27;97544.75;5017958;28;20044;-78
2021/03/16 00:08:17;;;;;;;1.30;1.10;;;;;;;8.67;48.10;97628.78;5035562;28;20100;-78
2021/03/16 00:10:43;;;;;;;1.88;1.30;;;;;;;8.19;48.12;97575.84;5035481;28;20048;-78
2021/03/16 00:13:08;;;;;;;0.95;0.88;;;;;;;8.31;48.41;97589.13;5035441;28;20348;-80
2021/03/16 00:15:34;;;;;;;1.30;0.98;;;;;;;8.62;48.15;97646.22;5035697;28;20036;-77
2021/03/16 00:18:01;;;;;;;1.42;0.90;;;;;;;8.60;48.23;97654.34;5035356;28;20491;-79
2021/03/16 00:20:27;;;;;;;1.13;0.75;;;;;;;8.60;48.40;97656.97;5035593;28;20026;-79
2021/03/16 00:22:52;;;;;;;0.77;0.77;;;;;;;8.07;47.77;97573.06;5035257;28;20108;-80
2021/03/16 00:25:19;;;;;;;1.45;1.05;;;;;;;8.24;48.06;97589.16;5035224;28;20422;-78
2021/03/16 00:27:44;;;;;;;1.20;1.10;;;;;;;8.69;48.04;97652.25;5035191;28;20325;-82
2021/03/16 00:30:10;;;;;;;1.10;1.00;;;;;;;8.63;48.01;97663.63;5017921;28;20036;-80
2021/03/16 00:32:36;;;;;;;1.83;1.20;;;;;;;8.66;48.53;97679.78;5017900;28;20407;-81
2021/03/16 00:35:01;;;;;;;3.67;1.13;;;;;;;8.70;48.55;97661.75;5044169;28;20021;-79
2021/03/16 00:37:27;;;;;;;1.05;0.90;;;;;;;8.03;48.70;97560.53;5018601;28;20480;-79
2021/03/16 00:39:53;;;;;;;1.58;1.27;;;;;;;8.76;48.63;97671.44;5035515;28;20057;-83
2021/03/16 00:42:18;;;;;;;1.40;1.17;;;;;;;8.75;48.53;97675.09;5018817;28;20112;-77
2021/03/16 00:44:44;;;;;;;2.17;1.10;;;;;;;8.09;48.56;97578.91;5035168;28;20026;-78
2021/03/16 00:47:10;;;;;;;1.60;1.20;;;;;;;8.80;48.58;97677.88;5035107;28;20025;-78
2021/03/16 00:49:35;;;;;;;2.40;1.45;;;;;;;8.79;48.66;97665.75;5017528;28;20425;-79
2021/03/16 00:52:01;;;;;;;1.52;1.10;;;;;;;8.43;47.90;97598.00;5034953;28;20021;-79
2021/03/16 00:54:27;;;;;;;4.40;2.03;;;;;;;8.28;48.36;97583.28;5034750;28;20037;-82
2021/03/16 00:56:52;;;;;;;0.90;0.80;;;;;;;8.57;48.36;97633.72;5034588;28;20080;-78
2021/03/16 00:59:17;;;;;;;2.13;1.30;;;;;;;8.65;48.34;97645.81;5034741;28;20344;-82
2021/03/16 01:01:43;;;;;;;1.42;1.08;;;;;;;8.52;48.08;97623.81;5048273;22;20095;-80
2021/03/16 01:04:08;;;;;;;0.93;0.93;;;;;;;8.67;48.60;97643.75;5037181;28;20029;-77
2021/03/16 01:06:34;;;;;;;1.42;0.90;;;;;;;8.49;48.49;97605.03;5037132;28;20025;-81
2021/03/16 01:08:59;;;;;;;1.85;1.20;;;;;;;8.74;48.66;97632.19;5037072;28;20121;-82
2021/03/16 01:11:24;;;;;;;1.00;0.90;;;;;;;8.36;48.87;97565.66;5054658;28;20385;-79
2021/03/16 01:13:50;;;;;;;1.23;0.90;;;;;;;8.92;48.33;97642.00;5036817;28;20025;-83
2021/03/16 01:16:15;;;;;;;1.13;0.82;;;;;;;8.71;48.30;97616.00;5054688;28;20024;-80
2021/03/16 01:18:41;;;;;;;1.00;0.90;;;;;;;8.93;48.30;97646.25;5054497;28;20343;-83
2021/03/16 01:21:08;;;;;;;1.38;1.00;;;;;;;8.80;48.12;97618.16;5053430;28;20128;-79
2021/03/16 01:23:34;;;;;;;1.00;0.90;;;;;;;8.75;48.53;97618.00;5036961;28;20092;-81
2021/03/16 01:25:59;;;;;;;1.67;0.95;;;;;;;8.88;48.68;97636.31;5054593;28;20021;-81
2021/03/16 01:28:25;;;;;;;1.10;1.00;;;;;;;8.63;48.47;97635.50;5054782;28;20442;-79
2021/03/16 01:30:50;;;;;;;0.90;0.90;;;;;;;8.69;47.98;97632.00;5054443;28;20063;-80
2021/03/16 01:33:15;;;;;;;2.13;1.02;;;;;;;8.68;48.38;97635.66;5036960;28;20110;-79
2021/03/16 01:35:41;;;;;;;0.90;0.80;;;;;;;7.88;48.59;97492.50;5053390;28;20029;-84
2021/03/16 01:38:06;;;;;;;1.05;0.95;;;;;;;8.68;48.41;97643.56;5054366;28;20499;-84
2021/03/16 01:40:38;;;;;;;10.05;4.60;;;;;;;8.64;47.71;97626.59;5054568;28;20036;-86
2021/03/16 01:43:10;;;;;;;3.20;1.65;;;;;;;8.04;48.34;97538.50;5044623;28;20419;-81
2021/03/16 01:45:35;;;;;;;;;;;;;;;8.55;48.36;97627.84;5056773;28;20118;-81
2021/03/16 01:48:01;;;;;;;1.35;0.95;;;;;;;8.62;48.61;97626.00;5054588;28;19913;-83
2021/03/16 01:50:26;;;;;;;0.90;0.90;;;;;;;8.56;48.93;97635.53;5054661;28;20091;-80
2021/03/16 01:52:53;;;;;;;1.23;1.13;;;;;;;7.91;48.29;97516.53;5054379;28;20053;-81
2021/03/16 01:55:20;;;;;;;1.30;1.20;;;;;;;8.59;48.17;97636.94;5054188;28;20039;-82
2021/03/16 01:57:47;;;;;;;1.80;0.90;;;;;;;8.60;48.16;97625.41;5054683;28;20430;-77
2021/03/16 02:00:12;;;;;;;1.35;1.10;;;;;;;8.18;48.57;97588.19;5057895;28;20166;-79
2021/03/16 02:02:38;;;;;;;1.75;1.00;;;;;;;8.58;48.64;97630.06;5036792;28;20128;-82
2021/03/16 02:05:10;;;;;;;1.10;1.00;;;;;;;8.59;48.05;97643.00;5037734;28;20029;-83
2021/03/16 02:07:48;;;;;;;1.33;0.85;;;;;;;8.46;47.89;97635.19;5037902;28;20416;-84
2021/03/16 02:10:24;;;;;;;1.25;0.90;;;;;;;8.48;47.93;97663.91;5037731;28;20029;-81
2021/03/16 02:13:03;;;;;;;1.30;0.90;;;;;;;7.92;47.98;97572.53;5036705;28;20482;-80
2021/03/16 02:15:38;;;;;;;1.92;1.10;;;;;;;8.42;47.83;97641.09;5037869;28;20053;-80
2021/03/16 02:18:10;;;;;;;1.40;1.17;;;;;;;8.13;48.13;97629.22;5037700;28;20082;-81
2021/03/16 02:21:06;;;;;;;1.10;1.00;;;;;;;8.56;48.00;97645.25;5037634;28;20447;-82
2021/03/16 02:23:46;;;;;;;1.20;1.10;;;;;;;8.58;47.70;97648.47;5036546;28;20080;-82
2021/03/16 02:26:53;;;;;;;1.42;1.20;;;;;;;8.48;47.57;97635.78;5036389;28;20056;-79
2021/03/16 02:29:24;;;;;;;1.52;1.25;;;;;;;8.14;48.47;97599.31;5037214;28;20091;-80
2021/03/16 02:31:57;;;;;;;2.28;1.70;;;;;;;8.56;48.04;97658.41;5036377;28;20121;-84
2021/03/16 02:34:23;;;;;;;1.40;1.30;;;;;;;8.13;48.46;97585.34;5037441;28;20057;-83
2021/03/16 02:36:50;;;;;;;1.20;1.00;;;;;;;8.00;48.14;97559.16;5035828;28;20033;-79
2021/03/16 02:39:17;;;;;;;1.17;1.08;;;;;;;8.47;48.60;97630.72;5047158;28;20030;-79
2021/03/16 02:41:50;;;;;;;1.20;1.00;;;;;;;8.25;48.26;97603.94;5039271;28;20037;-85
2021/03/16 02:44:16;;;;;;;1.20;1.00;;;;;;;8.18;48.27;97600.53;5037639;28;20026;-82
2021/03/16 02:46:48;;;;;;;2.33;1.17;;;;;;;7.76;47.91;97520.47;5037364;28;20025;-83
2021/03/16 02:49:15;;;;;;;1.10;1.00;;;;;;;8.72;48.09;97665.78;5037208;28;20033;-83
2021/03/16 02:51:43;;;;;;;1.23;1.00;;;;;;;8.37;48.01;97623.31;5036103;28;20394;-85
2021/03/16 02:54:10;;;;;;;1.25;1.15;;;;;;;8.45;47.96;97622.25;5036950;28;20033;-82
2021/03/16 02:56:36;;;;;;;1.30;1.20;;;;;;;8.16;48.19;97605.97;5036758;28;20024;-82
2021/03/16 02:59:05;;;;;;;2.33;1.20;;;;;;;8.69;48.57;97668.84;5036886;28;20026;-83
2021/03/16 03:01:36;;;;;;;2.00;1.63;;;;;;;8.70;48.18;97670.47;5041502;28;20053;-79
2021/03/16 03:04:05;;;;;;;1.58;1.48;;;;;;;8.62;48.55;97662.00;5056768;28;20102;-81
2021/03/16 03:06:33;;;;;;;1.52;1.38;;;;;;;8.64;48.43;97665.25;5056603;28;20439;-84
2021/03/16 03:09:01;;;;;;;1.52;1.20;;;;;;;8.65;48.62;97665.03;5038283;28;20029;-81
2021/03/16 03:11:30;;;;;;;1.20;1.10;;;;;;;7.54;48.47;97512.06;5056560;28;20398;-77
2021/03/16 03:13:56;;;;;;;1.40;1.25;;;;;;;8.65;48.62;97682.63;5056925;28;20339;-81
2021/03/16 03:16:21;;;;;;;1.40;1.15;;;;;;;8.64;48.37;97676.56;5056482;28;20083;-77
2021/03/16 03:18:46;;;;;;;1.50;1.40;;;;;;;8.28;48.31;97620.09;5038763;28;20031;-76
2021/03/16 03:21:15;;;;;;;4.78;2.50;;;;;;;8.13;48.73;97614.28;5038781;28;20017;-79
2021/03/16 03:23:50;;;;;;;1.60;1.40;;;;;;;8.59;48.77;97679.03;5038653;28;20052;-77
2021/03/16 03:26:22;;;;;;;1.30;1.20;;;;;;;8.54;49.34;97655.97;5056456;28;20021;-77
2021/03/16 03:28:48;;;;;;;1.70;1.38;;;;;;;8.68;48.67;97682.22;5056394;28;20029;-80
2021/03/16 03:31:15;;;;;;;1.33;1.23;;;;;;;8.59;48.92;97695.59;5038666;28;20435;-78
2021/03/16 03:33:42;;;;;;;1.75;1.30;;;;;;;8.10;48.86;97617.31;5038453;28;20028;-77
2021/03/16 03:36:08;;;;;;;1.30;1.20;;;;;;;8.46;48.92;97656.22;5056156;28;20435;-79
2021/03/16 03:38:35;;;;;;;1.40;1.30;;;;;;;8.21;49.38;97645.59;5056170;28;20033;-78
2021/03/16 03:41:03;;;;;;;1.45;1.30;;;;;;;8.18;49.09;97625.00;5056075;28;20021;-79
2021/03/16 03:43:31;;;;;;;1.35;1.25;;;;;;;8.02;49.32;97591.28;5056119;28;20067;-79
2021/03/16 03:45:58;;;;;;;1.30;1.20;;;;;;;8.62;49.63;97683.84;5060420;28;20490;-80
2021/03/16 03:48:26;;;;;;;1.00;1.00;;;;;;;8.42;49.43;97664.75;5046633;28;20102;-82
2021/03/16 03:50:53;;;;;;;1.85;1.38;;;;;;;8.53;49.76;97674.59;5056708;28;20067;-80
2021/03/16 03:53:34;;;;;;;1.30;1.20;;;;;;;8.09;49.56;97634.09;5113176;27;20347;-81
2021/03/16 03:56:00;;;;;;;1.60;1.30;;;;;;;8.38;49.89;97700.38;5112763;28;20100;-79
2021/03/16 03:58:27;;;;;;;2.35;1.42;;;;;;;8.05;49.96;97647.88;5111713;28;20077;-82
2021/03/16 04:00:53;;;;;;;2.58;1.40;;;;;;;7.76;49.88;97594.00;5111736;28;20023;-84
2021/03/16 04:03:18;;;;;;;2.00;1.30;;;;;;;8.26;50.47;97664.19;5111438;28;20020;-82
2021/03/16 04:05:48;;;;;;;2.08;1.45;;;;;;;7.98;50.27;97624.25;5112836;28;20023;-80
2021/03/16 04:08:16;;;;;;;2.97;1.70;;;;;;;6.74;51.11;97445.88;5112962;28;20089;-80
2021/03/16 04:10:41;;;;;;;2.88;1.98;;;;;;;7.64;51.17;97597.28;5113120;28;20032;-80
2021/03/16 04:13:07;;;;;;;1.33;1.10;;;;;;;7.36;51.21;97564.41;5114929;28;20031;-80
2021/03/16 04:15:33;;;;;;;1.55;1.20;;;;;;;8.21;51.33;97682.41;5112684;28;20038;-79
2021/03/16 04:17:58;;;;;;;1.35;1.02;;;;;;;7.89;51.66;97657.81;5112248;28;20042;-80
2021/03/16 04:20:24;;;;;;;2.78;1.40;;;;;;;7.67;52.13;97647.78;5111265;28;20027;-84
2021/03/16 04:22:50;;;;;;;3.38;1.27;;;;;;;7.98;52.43;97717.03;5111115;28;20038;-81
2021/03/16 04:25:16;;;;;;;1.42;1.20;;;;;;;8.04;52.75;97691.75;5112383;28;20016;-82
2021/03/16 04:27:41;;;;;;;1.10;1.00;;;;;;;7.57;52.35;97642.97;5111400;28;20440;-81
2021/03/16 04:30:08;;;;;;;2.10;1.08;;;;;;;7.48;52.71;97599.56;5111145;28;20053;-84
2021/03/16 04:32:34;;;;;;;1.88;1.20;;;;;;;8.05;52.86;97706.50;5111032;28;20027;-81
2021/03/16 04:35:00;;;;;;;1.20;1.10;;;;;;;8.10;52.32;97696.16;5112090;28;20032;-82
2021/03/16 04:37:26;;;;;;;0.93;0.93;;;;;;;7.77;52.49;97648.16;5112046;28;20394;-82
2021/03/16 04:39:51;;;;;;;1.55;1.00;;;;;;;8.14;52.60;97700.00;5111935;28;20023;-83
2021/03/16 04:42:17;;;;;;;1.45;1.00;;;;;;;8.05;52.78;97705.69;5111809;28;20031;-81
2021/03/16 04:44:43;;;;;;;3.33;1.92;;;;;;;8.05;52.87;97717.00;5112126;28;20051;-81
2021/03/16 04:47:08;;;;;;;1.15;1.00;;;;;;;7.87;52.93;97709.78;5110779;28;20229;-79
2021/03/16 04:49:34;;;;;;;1.63;1.30;;;;;;;7.31;53.27;97649.84;5112056;28;20512;-80
2021/03/16 04:51:59;;;;;;;1.75;1.35;;;;;;;7.59;53.71;97688.22;5111769;28;20040;-83
2021/03/16 04:54:25;;;;;;;1.10;1.00;;;;;;;7.59;53.55;97698.72;5117399;28;20051;-81
2021/03/16 04:56:51;;;;;;;1.30;1.10;;;;;;;7.67;53.89;97695.88;5116943;28;20342;-83
2021/03/16 04:59:16;;;;;;;2.00;1.10;;;;;;;7.58;53.92;97708.41;5110822;28;20030;-81
2021/03/16 05:01:42;;;;;;;1.52;1.13;;;;;;;7.50;54.83;97700.75;5112139;28;20028;-78
2021/03/16 05:04:07;;;;;;;1.98;1.30;;;;;;;7.58;53.83;97705.78;5102944;28;20047;-81
2021/03/16 05:06:33;;;;;;;1.77;1.30;;;;;;;7.18;53.97;97638.53;5097199;28;20028;-82
2021/03/16 05:08:58;;;;;;;2.17;1.50;;;;;;;6.93;54.32;97578.81;5096796;28;20024;-79
2021/03/16 05:11:24;;;;;;;1.35;1.20;;;;;;;7.81;54.26;97715.03;5097931;28;20031;-79
2021/03/16 05:13:50;;;;;;;1.17;1.08;;;;;;;7.67;54.46;97689.81;5097891;28;20028;-79
2021/03/16 05:16:16;;;;;;;1.17;1.08;;;;;;;7.70;54.31;97698.09;5098126;28;20081;-78
2021/03/16 05:18:41;;;;;;;2.17;1.90;;;;;;;6.52;53.31;97507.38;5097680;28;20024;-80
2021/03/16 05:21:07;;;;;;;3.35;1.95;;;;;;;7.17;54.01;97602.81;5097721;28;20082;-81
2021/03/16 05:23:32;;;;;;;2.58;1.65;;;;;;;7.23;53.44;97604.63;5096512;28;20027;-79
2021/03/16 05:25:58;;;;;;;2.38;1.80;;;;;;;7.89;53.47;97715.63;5097504;28;20020;-80
2021/03/16 05:28:23;;;;;;;1.75;1.48;;;;;;;7.91;54.28;97713.59;5097531;28;20024;-77
2021/03/16 05:30:49;;;;;;;1.60;1.50;;;;;;;8.01;53.36;97712.38;5097359;28;20443;-80
2021/03/16 05:33:14;;;;;;;3.53;2.10;;;;;;;7.58;53.52;97658.50;5097392;28;20112;-80
2021/03/16 05:35:39;;;;;;;2.35;1.85;;;;;;;8.02;52.86;97720.03;5097622;28;20495;-80
2021/03/16 05:38:07;;;;;;;4.00;2.10;;;;;;;7.63;53.01;97677.09;5097281;28;20028;-78
2021/03/16 05:40:33;;;;;;;5.05;2.50;;;;;;;7.96;53.11;97729.56;5097504;28;20024;-79
2021/03/16 05:42:59;;;;;;;5.22;3.08;;;;;;;7.87;52.95;97707.16;5097302;28;20016;-77
2021/03/16 05:45:25;;;;;;;2.75;1.90;;;;;;;7.23;53.43;97604.63;5098115;28;20031;-77
2021/03/16 05:47:52;;;;;;;2.40;1.35;;;;;;;7.89;53.47;97705.13;5097170;28;20024;-77
2021/03/16 05:50:18;;;;;;;3.03;2.20;;;;;;;8.09;52.55;97725.28;5097122;28;20028;-76
2021/03/16 05:52:45;;;;;;;3.00;2.40;;;;;;;8.00;52.67;97732.59;5096866;28;20087;-79
2021/03/16 05:55:11;;;;;;;2.80;1.60;;;;;;;7.59;53.09;97664.56;5096783;28;20032;-79
2021/03/16 05:57:36;;;;;;;4.43;2.05;;;;;;;8.07;53.62;97733.38;5096951;28;20020;-78
2021/03/16 06:00:04;;;;;;;2.85;2.08;;;;;;;8.19;52.99;97738.84;5097107;28;20075;-79
2021/03/16 06:02:30;;;;;;;2.28;1.60;;;;;;;7.53;53.35;97647.81;5102217;28;20070;-78
2021/03/16 06:04:55;;;;;;;2.25;1.90;;;;;;;7.95;53.38;97699.03;5096117;28;20407;-77
2021/03/16 06:07:21;;;;;;;2.03;1.80;;;;;;;7.88;52.92;97695.63;5096727;28;20449;-80
2021/03/16 06:09:46;;;;;;;2.42;1.60;;;;;;;8.25;52.92;97741.44;5095741;28;20085;-78
2021/03/16 06:12:12;;;;;;;3.17;2.13;;;;;;;8.21;52.36;97758.66;5095302;28;20114;-76
2021/03/16 06:14:38;;;;;;;2.45;1.67;;;;;;;8.32;52.43;97751.13;5096193;28;20038;-78
2021/03/16 06:17:05;;;;;;;2.40;1.60;;;;;;;8.28;52.48;97764.69;5098271;28;20089;-79
2021/03/16 06:19:34;;;;;;;2.47;1.45;;;;;;;8.20;51.62;97767.53;5096403;28;20073;-76
2021/03/16 06:22:02;;;;;;;4.40;2.40;;;;;;;7.82;52.37;97727.16;5096189;28;20016;-76
2021/03/16 06:24:28;;;;;;;5.57;2.45;;;;;;;8.15;52.27;97784.91;5096198;28;20338;-77
2021/03/16 06:26:54;;;;;;;2.70;2.30;;;;;;;7.80;52.61;97726.56;5096142;28;20061;-77
2021/03/16 06:29:20;;;;;;;4.88;2.75;;;;;;;7.91;52.28;97737.25;5096119;28;20058;-77
2021/03/16 06:31:45;;;;;;;2.47;1.85;;;;;;;8.26;51.92;97798.28;5095981;28;20032;-77
2021/03/16 06:34:26;;;;;;;2.28;1.30;;;;;;;7.89;52.83;97809.41;5085607;28;20031;-77
2021/03/16 06:36:59;;;;;;;2.22;1.25;;;;;;;7.93;53.23;97789.59;5077855;28;20039;-77
2021/03/16 06:39:26;;;;;;;1.98;1.48;;;;;;;7.63;52.87;97753.25;5083126;28;20047;-77
2021/03/16 06:41:53;;;;;;;1.70;1.48;;;;;;;7.64;53.49;97744.38;5106608;28;20028;-77
2021/03/16 06:44:20;;;;;;;7.75;2.92;;;;;;;7.93;53.24;97797.50;5114188;28;20040;-76
2021/03/16 06:47:00;;;;;;;8.52;2.67;;;;;;;7.91;53.84;97787.19;5095903;28;20441;-77
2021/03/16 06:49:27;;;;;;;2.08;1.60;;;;;;;7.49;52.90;97714.88;5095747;28;20050;-77
2021/03/16 06:51:56;;;;;;;5.03;2.25;;;;;;;7.56;53.13;97733.25;5079648;28;20071;-77
2021/03/16 06:54:26;;;;;;;5.35;2.75;;;;;;;7.93;53.28;97793.03;5075526;28;20032;-75
2021/03/16 06:56:55;;;;;;;3.08;2.10;;;;;;;8.09;53.12;97812.03;5082902;28;20371;-76
2021/03/16 06:59:26;;;;;;;5.85;2.75;;;;;;;7.96;53.75;97797.06;5095951;28;20024;-77
2021/03/16 07:01:52;;;;;;;4.15;2.45;;;;;;;8.07;52.45;97808.78;5079417;28;20320;-77
2021/03/16 07:04:20;;;;;;;4.10;2.53;;;;;;;8.21;52.33;97821.75;5085126;28;20036;-79
2021/03/16 07:06:46;;;;;;;4.95;2.95;;;;;;;8.07;52.51;97796.47;5090957;28;20587;-77
2021/03/16 07:09:14;;;;;;;3.17;2.47;;;;;;;8.27;52.05;97834.06;5087902;28;20398;-76
2021/03/16 07:11:44;;;;;;;3.15;1.90;;;;;;;8.32;51.95;97835.28;5092359;28;20051;-79
2021/03/16 07:14:11;;;;;;;3.13;1.90;;;;;;;8.34;52.05;97828.03;5083631;28;20028;-76
2021/03/16 07:16:38;;;;;;;3.20;2.40;;;;;;;8.28;51.89;97819.91;5088842;28;20453;-77
2021/03/16 07:19:05;;;;;;;3.00;1.90;;;;;;;8.40;52.42;97830.63;5080476;28;20109;-77
2021/03/16 07:21:38;;;;;;;4.63;3.05;;;;;;;8.14;51.94;97780.69;5092722;28;20077;-76
2021/03/16 07:24:08;;;;;;;5.55;2.80;;;;;;;8.48;51.73;97832.22;5087349;28;20031;-77
2021/03/16 07:26:34;;;;;;;2.22;1.90;;;;;;;8.31;51.68;97820.50;5089370;28;20103;-76
2021/03/16 07:29:04;;;;;;;1.90;1.63;;;;;;;8.19;51.45;97821.13;5102982;28;20114;-79
2021/03/16 07:31:38;;;;;;;3.42;2.53;;;;;;;8.09;50.83;97794.44;5087319;28;20028;-77
2021/03/16 07:34:05;;;;;;;3.85;2.60;;;;;;;8.38;51.36;97876.56;5076720;28;20055;-81
2021/03/16 07:36:33;;;;;;;2.95;1.88;;;;;;;8.26;50.54;97832.44;5073295;28;20033;-78
2021/03/16 07:39:00;;;;;;;1.38;1.20;;;;;;;8.32;50.52;97848.41;5088048;28;20434;-75
2021/03/16 07:41:26;;;;;;;3.38;1.90;;;;;;;8.25;50.84;97830.84;5076775;28;20070;-76
2021/03/16 07:44:08;;;;;;;3.92;2.35;;;;;;;8.31;50.40;97836.28;5084167;28;20032;-77
2021/03/16 07:46:59;;;;;;;2.97;1.65;;;;;;;8.31;50.81;97838.91;5087095;28;20032;-77
2021/03/16 07:49:35;;;;;;;2.85;1.65;;;;;;;8.10;50.44;97792.63;5078887;28;20359;-78
2021/03/16 07:52:14;;;;;;;2.75;2.08;;;;;;;8.07;50.31;97787.75;5077089;28;20055;-78
2021/03/16 07:54:41;;;;;;;3.03;2.20;;;;;;;8.36;50.86;97818.91;5074024;28;20043;-77
2021/03/16 07:57:07;;;;;;;3.05;2.13;;;;;;;8.46;50.71;97823.75;5090210;28;20026;-77
2021/03/16 07:59:35;;;;;;;5.00;3.42;;;;;;;8.58;50.37;97853.66;5086397;28;20449;-78
2021/03/16 08:02:01;;;;;;;3.55;2.00;;;;;;;8.55;50.76;97857.50;5086018;28;20024;-77
2021/03/16 08:04:35;;;;;;;2.97;2.17;;;;;;;8.31;50.44;97796.84;5077139;28;20024;-79
2021/03/16 08:07:02;;;;;;;2.53;1.95;;;;;;;8.66;49.84;97849.97;5074784;28;20032;-76
2021/03/16 08:09:28;;;;;;;3.53;2.50;;;;;;;8.38;49.98;97808.19;5084199;28;20037;-79
2021/03/16 08:11:54;;;;;;;3.35;2.20;;;;;;;8.51;49.25;97827.38;5073775;28;20039;-77
2021/03/16 08:14:28;;;;;;;4.65;2.35;;;;;;;7.91;49.32;97734.63;5073650;28;20063;-79
2021/03/16 08:16:54;;;;;;;4.60;2.65;;;;;;;8.22;49.51;97794.44;5087598;28;20033;-78
2021/03/16 08:19:22;;;;;;;7.65;3.88;;;;;;;8.71;49.15;97850.97;5073996;28;20025;-77
2021/03/16 08:21:56;;;;;;;6.68;4.07;;;;;;;8.29;49.86;97807.56;5078539;28;20074;-74
2021/03/16 08:24:22;;;;;;;6.95;3.50;;;;;;;8.10;49.69;97764.50;5078427;28;20378;-74
2021/03/16 08:26:53;;;;;;;6.50;3.53;;;;;;;7.81;49.55;97726.34;5092984;28;20063;-75
2021/03/16 08:29:26;;;;;;;4.85;3.00;;;;;;;8.64;49.46;97844.94;5093014;28;20028;-76
2021/03/16 08:31:53;;;;;;;4.35;2.58;;;;;;;8.65;49.25;97846.53;5093763;28;20032;-77
2021/03/16 08:34:21;;;;;;;2.88;2.03;;;;;;;8.40;49.00;97808.78;5080442;28;20032;-76
2021/03/16 08:36:47;;;;;;;6.75;2.97;;;;;;;8.52;48.81;97818.47;5086284;28;20054;-76
2021/03/16 08:39:19;;;;;;;3.00;2.05;;;;;;;8.82;48.55;97845.06;5089635;28;20032;-78
2021/03/16 08:42:00;;;;;;;2.80;1.83;;;;;;;8.40;47.91;97791.19;5100153;28;20027;-75
2021/03/16 08:44:29;;;;;;;3.95;2.63;;;;;;;8.91;48.31;97851.72;5082264;28;20043;-79
2021/03/16 08:46:58;;;;;;;2.35;1.70;;;;;;;8.58;48.14;97793.94;5076556;28;20107;-77
2021/03/16 08:49:25;;;;;;;4.85;2.67;;;;;;;8.97;48.35;97860.63;5077360;28;20028;-78
2021/03/16 08:51:51;;;;;;;4.43;2.35;;;;;;;8.32;48.30;97764.28;5076387;28;20388;-79
2021/03/16 08:54:28;;;;;;;5.57;2.42;;;;;;;8.90;47.91;97836.94;5092943;28;20024;-77
2021/03/16 08:56:54;;;;;;;5.13;3.15;;;;;;;9.00;48.31;97865.47;5076110;28;20036;-78
2021/03/16 08:59:21;;;;;;;3.20;2.00;;;;;;;8.91;48.15;97859.59;5076048;28;20024;-79
2021/03/16 09:01:51;;;;;;;4.57;2.38;;;;;;;8.96;47.96;97864.28;5083898;28;20031;-79
2021/03/16 09:04:18;;;;;;;3.80;2.78;;;;;;;9.03;47.80;97859.78;5096180;28;20032;-76
2021/03/16 09:06:44;;;;;;;3.95;2.95;;;;;;;9.05;47.72;97859.59;5087125;28;20033;-77
2021/03/16 09:09:11;;;;;;;6.07;2.25;;;;;;;8.74;47.73;97805.84;5085042;28;20040;-79
2021/03/16 09:11:43;;;;;;;4.15;2.80;;;;;;;8.72;47.29;97821.03;5089541;28;20420;-77
2021/03/16 09:14:10;;;;;;;3.53;1.83;;;;;;;9.02;47.51;97865.28;5089419;28;20028;-76
2021/03/16 09:16:41;;;;;;;3.67;2.25;;;;;;;8.56;47.03;97793.34;5080433;28;20044;-79
2021/03/16 09:19:08;;;;;;;6.18;2.70;;;;;;;8.52;47.14;97778.19;5083837;28;20021;-79
2021/03/16 09:21:35;;;;;;;3.80;2.55;;;;;;;8.42;47.00;97772.56;5089828;28;20347;-79
2021/03/16 09:24:03;;;;;;;5.38;2.88;;;;;;;9.22;47.35;97871.25;5101843;28;20027;-77
2021/03/16 09:26:28;;;;;;;5.35;2.33;;;;;;;9.28;46.94;97851.97;5111577;28;20035;-80
2021/03/16 09:28:54;;;;;;;6.95;2.60;;;;;;;8.59;46.77;97750.03;5095888;28;20310;-79
2021/03/16 09:31:21;;;;;;;3.85;2.63;;;;;;;9.31;47.01;97846.28;5107365;28;20024;-79
2021/03/16 09:33:47;;;;;;;6.70;2.45;;;;;;;9.39;46.98;97863.66;5100902;28;20055;-80
2021/03/16 09:36:12;;;;;;;5.18;2.90;;;;;;;9.35;46.93;97836.94;5114620;28;20472;-81
2021/03/16 09:38:38;;;;;;;5.93;2.10;;;;;;;8.85;46.37;97759.63;5088869;28;20058;-77
2021/03/16 09:41:09;;;;;;;3.47;1.70;;;;;;;9.43;46.04;97827.97;5099296;28;20055;-78
2021/03/16 09:43:38;;;;;;;5.60;2.00;;;;;;;9.25;45.64;97789.19;5089283;28;20104;-79
2021/03/16 09:46:06;;;;;;;5.35;2.00;;;;;;;9.74;45.66;97856.19;5080197;28;20024;-77
2021/03/16 09:48:31;;;;;;;3.05;1.88;;;;;;;9.77;45.35;97859.19;5092531;28;20047;-78
2021/03/16 09:50:59;;;;;;;4.65;2.20;;;;;;;9.80;44.87;97866.66;5095549;28;20024;-79
2021/03/16 09:53:24;;;;;;;4.35;2.65;;;;;;;9.71;44.98;97861.88;5096475;28;20093;-79
2021/03/16 09:56:00;;;;;;;4.38;2.33;;;;;;;8.95;44.67;97767.91;5097202;28;20426;-77
2021/03/16 09:58:27;;;;;;;3.50;2.40;;;;;;;9.47;44.68;97851.06;5081701;28;20028;-77
2021/03/16 10:00:53;;;;;;;3.47;2.20;;;;;;;9.65;44.50;97844.25;5087453;28;20020;-79
2021/03/16 10:03:20;;;;;;;4.78;2.38;;;;;;;9.77;44.61;97871.56;5076786;28;20025;-78
2021/03/16 10:05:47;;;;;;;7.72;2.75;;;;;;;9.42;44.44;97787.66;5083033;28;20036;-78
2021/03/16 10:08:25;;;;;;;5.35;2.63;;;;;;;9.37;44.22;97776.16;5088441;28;20058;-79
2021/03/16 10:10:51;;;;;;;3.03;2.20;;;;;;;9.31;43.35;97793.63;5102158;28;20103;-80
2021/03/16 10:13:31;;;;;;;9.40;2.30;;;;;;;9.97;43.10;97881.97;5095113;28;20536;-79
2021/03/16 10:16:12;;;;;;;4.22;2.55;;;;;;;9.50;44.10;97840.09;5085847;28;20034;-79
2021/03/16 10:18:39;;;;;;;2.67;2.42;;;;;;;9.52;44.15;97842.50;5082677;28;20040;-77
2021/03/16 10:21:05;;;;;;;3.92;2.03;;;;;;;9.40;44.28;97805.50;5088986;28;20040;-79
2021/03/16 10:23:31;;;;;;;4.53;2.55;;;;;;;10.06;44.30;97888.56;5080418;28;20035;-80
2021/03/16 10:26:04;;;;;;;2.40;1.98;;;;;;;10.14;44.18;97885.66;5075435;28;20103;-80
2021/03/16 10:28:39;;;;;;;3.15;2.30;;;;;;;9.37;43.85;97786.69;5088843;28;20024;-77
2021/03/16 10:31:15;;;;;;;2.45;2.00;;;;;;;9.62;43.50;97820.97;5095495;28;20051;-76
2021/03/16 10:33:42;;;;;;;3.72;2.00;;;;;;;9.53;43.96;97784.34;5096361;28;20319;-78
2021/03/16 10:36:09;;;;;;;3.83;2.28;;;;;;;10.31;43.61;97892.03;5093803;28;20441;-80
2021/03/16 10:38:34;;;;;;;4.30;1.92;;;;;;;10.48;43.39;97914.25;5090711;28;20031;-78
2021/03/16 10:41:00;;;;;;;3.50;2.13;;;;;;;9.96;42.84;97788.88;5079592;28;20444;-77
2021/03/16 10:43:26;;;;;;;5.63;2.30;;;;;;;10.18;42.77;97803.25;5076707;28;20033;-80
2021/03/16 10:45:56;;;;;;;5.18;2.50;;;;;;;10.93;41.84;97899.97;5077057;28;20036;-76
2021/03/16 10:48:22;;;;;;;3.67;2.17;;;;;;;10.95;41.90;97887.38;5103252;28;20430;-76
2021/03/16 10:50:48;;;;;;;4.15;2.80;;;;;;;11.13;41.52;97882.06;5101206;28;20445;-77
2021/03/16 10:53:14;;;;;;;3.75;2.63;;;;;;;10.31;41.56;97751.44;5096093;28;20080;-75
2021/03/16 10:55:40;;;;;;;5.18;3.08;;;;;;;11.23;41.65;97877.09;5115836;28;20024;-77
2021/03/16 10:58:05;;;;;;;2.40;2.20;;;;;;;11.42;41.40;97906.94;5091972;28;20077;-78
2021/03/16 11:00:31;;;;;;;5.70;3.17;;;;;;;11.79;41.18;97907.66;5076607;28;20453;-77
2021/03/16 11:02:56;;;;;;;3.90;2.60;;;;;;;11.40;40.26;97835.00;5072633;28;20021;-77
2021/03/16 11:05:22;;;;;;;5.55;3.38;;;;;;;11.80;40.63;97882.84;5075404;28;20040;-77
2021/03/16 11:07:47;;;;;;;3.38;2.35;;;;;;;11.67;40.53;97899.66;5086567;28;20106;-76
2021/03/16 11:10:13;;;;;;;4.88;2.60;;;;;;;11.40;40.55;97874.63;5081853;28;20097;-76
2021/03/16 11:12:38;;;;;;;5.70;3.55;;;;;;;11.16;41.15;97865.00;5078081;28;20039;-77
2021/03/16 11:15:05;;;;;;;6.32;3.60;;;;;;;10.65;41.87;97818.66;5077228;28;20036;-77
2021/03/16 11:17:30;;;;;;;2.33;2.10;;;;;;;10.76;41.94;97881.28;5074627;28;20363;-78
2021/03/16 11:19:55;;;;;;;3.33;3.00;;;;;;;11.07;41.80;97904.09;5074696;28;20036;-78
2021/03/16 11:22:21;;;;;;;3.38;2.33;;;;;;;11.22;41.33;97916.94;5081293;28;20028;-78
2021/03/16 11:24:48;;;;;;;4.53;2.75;;;;;;;10.82;41.81;97880.41;5081879;28;20043;-78
2021/03/16 11:27:13;;;;;;;5.22;3.47;;;;;;;11.01;42.09;97892.56;5080825;28;20040;-76
2021/03/16 11:29:39;;;;;;;3.58;3.22;;;;;;;11.02;42.36;97939.06;5097333;28;20023;-77
2021/03/16 11:32:04;;;;;;;7.32;3.58;;;;;;;10.43;42.87;97861.31;5074632;28;20461;-81
2021/03/16 11:34:30;;;;;;;2.45;2.25;;;;;;;9.87;43.46;97819.16;5076581;28;20039;-73
2021/03/16 11:36:56;;;;;;;4.85;2.78;;;;;;;10.70;43.69;97961.34;5086764;28;20020;-77
2021/03/16 11:39:22;;;;;;;3.95;2.47;;;;;;;9.86;44.44;97834.19;5073939;28;20039;-78
2021/03/16 11:41:47;;;;;;;3.55;2.40;;;;;;;10.36;44.19;97926.50;5078136;28;20012;-76
2021/03/16 11:44:12;;;;;;;3.70;2.70;;;;;;;10.57;44.56;97951.72;5088181;28;20331;-77